Airport View

Enter AWOS ICAO identifier for current METAR.

ex. KFNL

KAFK 031735Z AUTO 00000KT 10SM CLR 28/25 A3008 RMK AO2 T02810245

3 Jul 2020 17:50

Frequency: 128.325

Phone: 402-873-7375

Other Area AWOS: KPMV - KSDA - KOFF - KFNB

TAF KOFF 031000Z 0310/0416 VRB06KT 9999 BKN040 QNH3004INS BECMG 0315/0316 11009KT 9999 FEW040 SCT100 QNH3002INS TX32/0320Z TN22/0311Z